sensor_id;sensor_type;location;lat;lon;timestamp;P1;durP1;ratioP1;P2;durP2;ratioP2
76423;SDS011;65257;52.104;4.268;2022-11-18T00:00:52;5.32;;;2.92;;
76423;SDS011;65257;52.104;4.268;2022-11-18T00:03:21;5.53;;;2.88;;
76423;SDS011;65257;52.104;4.268;2022-11-18T00:05:54;5.80;;;2.30;;
76423;SDS011;65257;52.104;4.268;2022-11-18T00:08:20;8.80;;;2.65;;
76423;SDS011;65257;52.104;4.268;2022-11-18T00:10:50;6.03;;;3.10;;
76423;SDS011;65257;52.104;4.268;2022-11-18T00:13:16;5.18;;;2.60;;
76423;SDS011;65257;52.104;4.268;2022-11-18T00:16:05;7.63;;;3.35;;
76423;SDS011;65257;52.104;4.268;2022-11-18T00:18:33;8.18;;;2.85;;
76423;SDS011;65257;52.104;4.268;2022-11-18T00:21:00;6.85;;;2.78;;
76423;SDS011;65257;52.104;4.268;2022-11-18T00:23:29;6.65;;;3.35;;
76423;SDS011;65257;52.104;4.268;2022-11-18T00:25:58;4.75;;;2.75;;
76423;SDS011;65257;52.104;4.268;2022-11-18T00:28:36;5.55;;;3.15;;
76423;SDS011;65257;52.104;4.268;2022-11-18T00:31:11;7.32;;;3.25;;
76423;SDS011;65257;52.104;4.268;2022-11-18T00:33:38;5.13;;;2.67;;
76423;SDS011;65257;52.104;4.268;2022-11-18T00:36:08;4.65;;;2.58;;
76423;SDS011;65257;52.104;4.268;2022-11-18T00:38:35;6.55;;;3.03;;
76423;SDS011;65257;52.104;4.268;2022-11-18T00:41:01;7.60;;;3.05;;
76423;SDS011;65257;52.104;4.268;2022-11-18T00:43:34;6.82;;;3.38;;
76423;SDS011;65257;52.104;4.268;2022-11-18T00:46:00;8.27;;;3.40;;
76423;SDS011;65257;52.104;4.268;2022-11-18T00:48:26;6.03;;;3.47;;
76423;SDS011;65257;52.104;4.268;2022-11-18T00:51:04;9.52;;;4.03;;
76423;SDS011;65257;52.104;4.268;2022-11-18T00:53:45;6.93;;;3.25;;
76423;SDS011;65257;52.104;4.268;2022-11-18T00:56:14;7.00;;;3.67;;
76423;SDS011;65257;52.104;4.268;2022-11-18T00:58:39;9.68;;;3.75;;
76423;SDS011;65257;52.104;4.268;2022-11-18T01:01:05;7.07;;;3.75;;
76423;SDS011;65257;52.104;4.268;2022-11-18T01:03:30;6.25;;;3.13;;
76423;SDS011;65257;52.104;4.268;2022-11-18T01:05:56;7.35;;;4.05;;
76423;SDS011;65257;52.104;4.268;2022-11-18T01:08:22;8.02;;;3.75;;
76423;SDS011;65257;52.104;4.268;2022-11-18T01:10:48;10.02;;;3.95;;
76423;SDS011;65257;52.104;4.268;2022-11-18T01:13:17;6.65;;;3.83;;
76423;SDS011;65257;52.104;4.268;2022-11-18T01:16:05;7.18;;;3.60;;
76423;SDS011;65257;52.104;4.268;2022-11-18T01:18:33;7.45;;;4.35;;
76423;SDS011;65257;52.104;4.268;2022-11-18T01:21:08;8.10;;;4.00;;
76423;SDS011;65257;52.104;4.268;2022-11-18T01:23:33;7.55;;;4.13;;
76423;SDS011;65257;52.104;4.268;2022-11-18T01:26:02;8.32;;;4.15;;
76423;SDS011;65257;52.104;4.268;2022-11-18T01:28:32;8.75;;;4.28;;
76423;SDS011;65257;52.104;4.268;2022-11-18T01:31:08;7.45;;;4.22;;
76423;SDS011;65257;52.104;4.268;2022-11-18T01:33:42;7.22;;;4.40;;
76423;SDS011;65257;52.104;4.268;2022-11-18T01:36:18;7.60;;;4.13;;
76423;SDS011;65257;52.104;4.268;2022-11-18T01:38:48;9.32;;;3.60;;
76423;SDS011;65257;52.104;4.268;2022-11-18T01:41:17;7.82;;;3.70;;
76423;SDS011;65257;52.104;4.268;2022-11-18T01:43:49;11.02;;;3.70;;
76423;SDS011;65257;52.104;4.268;2022-11-18T01:46:21;6.65;;;3.85;;
76423;SDS011;65257;52.104;4.268;2022-11-18T01:48:52;8.68;;;3.88;;
76423;SDS011;65257;52.104;4.268;2022-11-18T01:51:31;8.63;;;4.57;;
76423;SDS011;65257;52.104;4.268;2022-11-18T01:54:11;9.75;;;4.32;;
76423;SDS011;65257;52.104;4.268;2022-11-18T01:56:43;7.95;;;4.47;;
76423;SDS011;65257;52.104;4.268;2022-11-18T01:59:20;11.43;;;4.65;;
76423;SDS011;65257;52.104;4.268;2022-11-18T02:02:05;7.70;;;4.03;;
76423;SDS011;65257;52.104;4.268;2022-11-18T02:04:36;11.55;;;4.72;;
76423;SDS011;65257;52.104;4.268;2022-11-18T02:07:06;9.98;;;4.45;;
76423;SDS011;65257;52.104;4.268;2022-11-18T02:09:32;10.07;;;4.35;;
76423;SDS011;65257;52.104;4.268;2022-11-18T02:12:00;8.93;;;4.15;;
76423;SDS011;65257;52.104;4.268;2022-11-18T02:14:27;9.18;;;4.25;;
76423;SDS011;65257;52.104;4.268;2022-11-18T02:24:51;7.00;;;4.63;;
76423;SDS011;65257;52.104;4.268;2022-11-18T02:34:24;11.45;;;4.35;;
76423;SDS011;65257;52.104;4.268;2022-11-18T02:36:29;9.48;;;4.78;;
76423;SDS011;65257;52.104;4.268;2022-11-18T02:39:05;8.73;;;4.20;;
76423;SDS011;65257;52.104;4.268;2022-11-18T02:41:34;11.27;;;4.82;;
76423;SDS011;65257;52.104;4.268;2022-11-18T02:44:14;7.53;;;3.53;;
76423;SDS011;65257;52.104;4.268;2022-11-18T02:46:42;10.90;;;5.03;;
76423;SDS011;65257;52.104;4.268;2022-11-18T02:49:14;7.85;;;4.30;;
76423;SDS011;65257;52.104;4.268;2022-11-18T02:51:43;8.43;;;4.35;;
76423;SDS011;65257;52.104;4.268;2022-11-18T02:54:17;8.85;;;3.83;;
76423;SDS011;65257;52.104;4.268;2022-11-18T02:56:47;9.05;;;3.78;;
76423;SDS011;65257;52.104;4.268;2022-11-18T02:59:16;10.07;;;4.25;;
76423;SDS011;65257;52.104;4.268;2022-11-18T03:01:44;6.60;;;3.75;;
76423;SDS011;65257;52.104;4.268;2022-11-18T03:04:11;11.52;;;4.45;;
76423;SDS011;65257;52.104;4.268;2022-11-18T03:06:47;7.97;;;4.63;;
76423;SDS011;65257;52.104;4.268;2022-11-18T03:09:26;9.02;;;3.95;;
76423;SDS011;65257;52.104;4.268;2022-11-18T03:31:23;5.95;;;3.33;;
76423;SDS011;65257;52.104;4.268;2022-11-18T03:33:55;6.13;;;3.08;;
76423;SDS011;65257;52.104;4.268;2022-11-18T03:36:28;6.95;;;3.28;;
76423;SDS011;65257;52.104;4.268;2022-11-18T03:39:11;6.80;;;3.85;;
76423;SDS011;65257;52.104;4.268;2022-11-18T03:41:44;5.93;;;3.53;;
76423;SDS011;65257;52.104;4.268;2022-11-18T03:44:22;11.25;;;3.72;;
76423;SDS011;65257;52.104;4.268;2022-11-18T03:46:55;7.15;;;3.47;;
76423;SDS011;65257;52.104;4.268;2022-11-18T03:49:42;5.57;;;3.05;;
76423;SDS011;65257;52.104;4.268;2022-11-18T03:52:22;10.50;;;3.45;;
76423;SDS011;65257;52.104;4.268;2022-11-18T03:54:55;6.50;;;3.60;;
76423;SDS011;65257;52.104;4.268;2022-11-18T03:57:24;7.40;;;3.78;;
76423;SDS011;65257;52.104;4.268;2022-11-18T04:00:15;14.73;;;3.70;;
76423;SDS011;65257;52.104;4.268;2022-11-18T04:02:43;7.70;;;3.80;;
76423;SDS011;65257;52.104;4.268;2022-11-18T04:05:15;6.35;;;3.47;;
76423;SDS011;65257;52.104;4.268;2022-11-18T04:07:49;9.18;;;3.53;;
76423;SDS011;65257;52.104;4.268;2022-11-18T04:10:28;7.07;;;3.67;;
76423;SDS011;65257;52.104;4.268;2022-11-18T04:13:14;6.50;;;3.63;;
76423;SDS011;65257;52.104;4.268;2022-11-18T04:15:48;8.10;;;3.45;;
76423;SDS011;65257;52.104;4.268;2022-11-18T04:18:14;9.48;;;3.45;;
76423;SDS011;65257;52.104;4.268;2022-11-18T04:20:40;8.52;;;3.20;;
76423;SDS011;65257;52.104;4.268;2022-11-18T04:23:11;8.75;;;3.90;;
76423;SDS011;65257;52.104;4.268;2022-11-18T04:25:37;8.25;;;3.75;;
76423;SDS011;65257;52.104;4.268;2022-11-18T04:28:06;7.45;;;3.50;;
76423;SDS011;65257;52.104;4.268;2022-11-18T04:30:31;5.78;;;3.13;;
76423;SDS011;65257;52.104;4.268;2022-11-18T04:32:57;11.18;;;4.18;;
76423;SDS011;65257;52.104;4.268;2022-11-18T04:35:23;7.40;;;3.72;;
76423;SDS011;65257;52.104;4.268;2022-11-18T04:37:49;9.98;;;3.88;;
76423;SDS011;65257;52.104;4.268;2022-11-18T04:40:15;8.07;;;3.58;;
76423;SDS011;65257;52.104;4.268;2022-11-18T04:42:48;7.05;;;3.65;;
76423;SDS011;65257;52.104;4.268;2022-11-18T04:45:13;8.55;;;3.60;;
76423;SDS011;65257;52.104;4.268;2022-11-18T04:47:38;9.55;;;4.03;;
76423;SDS011;65257;52.104;4.268;2022-11-18T04:50:04;10.00;;;3.95;;
76423;SDS011;65257;52.104;4.268;2022-11-18T04:52:30;8.38;;;3.00;;
76423;SDS011;65257;52.104;4.268;2022-11-18T04:54:55;8.60;;;3.40;;
76423;SDS011;65257;52.104;4.268;2022-11-18T04:57:21;8.00;;;3.67;;
76423;SDS011;65257;52.104;4.268;2022-11-18T04:59:46;7.82;;;3.03;;
76423;SDS011;65257;52.104;4.268;2022-11-18T05:02:12;12.25;;;4.40;;
76423;SDS011;65257;52.104;4.268;2022-11-18T05:04:37;9.52;;;3.83;;
76423;SDS011;65257;52.104;4.268;2022-11-18T05:07:03;8.63;;;4.22;;
76423;SDS011;65257;52.104;4.268;2022-11-18T05:09:30;7.75;;;3.65;;
76423;SDS011;65257;52.104;4.268;2022-11-18T05:11:56;9.05;;;3.75;;
76423;SDS011;65257;52.104;4.268;2022-11-18T05:14:40;7.68;;;3.42;;
76423;SDS011;65257;52.104;4.268;2022-11-18T05:17:06;8.48;;;3.95;;
76423;SDS011;65257;52.104;4.268;2022-11-18T05:19:41;10.57;;;5.18;;
76423;SDS011;65257;52.104;4.268;2022-11-18T05:22:08;12.40;;;4.50;;
76423;SDS011;65257;52.104;4.268;2022-11-18T05:24:34;8.05;;;3.50;;
76423;SDS011;65257;52.104;4.268;2022-11-18T05:27:01;8.05;;;3.92;;
76423;SDS011;65257;52.104;4.268;2022-11-18T05:29:27;8.30;;;4.20;;
76423;SDS011;65257;52.104;4.268;2022-11-18T05:31:52;10.93;;;4.35;;
76423;SDS011;65257;52.104;4.268;2022-11-18T05:34:18;9.85;;;4.28;;
76423;SDS011;65257;52.104;4.268;2022-11-18T05:36:44;8.73;;;3.72;;
76423;SDS011;65257;52.104;4.268;2022-11-18T05:39:10;10.30;;;4.38;;
76423;SDS011;65257;52.104;4.268;2022-11-18T05:41:35;12.55;;;4.78;;
76423;SDS011;65257;52.104;4.268;2022-11-18T05:44:23;8.82;;;3.63;;
76423;SDS011;65257;52.104;4.268;2022-11-18T05:46:49;8.93;;;3.67;;
76423;SDS011;65257;52.104;4.268;2022-11-18T05:49:14;6.88;;;3.80;;
76423;SDS011;65257;52.104;4.268;2022-11-18T05:51:40;10.48;;;3.85;;
76423;SDS011;65257;52.104;4.268;2022-11-18T05:54:08;12.77;;;4.53;;
76423;SDS011;65257;52.104;4.268;2022-11-18T05:56:40;13.23;;;4.18;;
76423;SDS011;65257;52.104;4.268;2022-11-18T05:59:09;8.88;;;3.65;;
76423;SDS011;65257;52.104;4.268;2022-11-18T06:04:07;7.85;;;3.42;;
76423;SDS011;65257;52.104;4.268;2022-11-18T06:06:41;9.55;;;3.97;;
76423;SDS011;65257;52.104;4.268;2022-11-18T06:09:10;7.75;;;3.30;;
76423;SDS011;65257;52.104;4.268;2022-11-18T06:11:42;7.60;;;3.30;;
76423;SDS011;65257;52.104;4.268;2022-11-18T06:14:14;7.45;;;3.28;;
76423;SDS011;65257;52.104;4.268;2022-11-18T06:17:09;10.93;;;3.42;;
76423;SDS011;65257;52.104;4.268;2022-11-18T06:19:46;7.53;;;3.83;;
76423;SDS011;65257;52.104;4.268;2022-11-18T06:22:12;9.55;;;4.13;;
76423;SDS011;65257;52.104;4.268;2022-11-18T06:24:38;7.13;;;3.85;;
76423;SDS011;65257;52.104;4.268;2022-11-18T06:27:06;8.25;;;3.58;;
76423;SDS011;65257;52.104;4.268;2022-11-18T06:29:35;8.15;;;3.92;;
76423;SDS011;65257;52.104;4.268;2022-11-18T06:32:00;7.18;;;4.03;;
76423;SDS011;65257;52.104;4.268;2022-11-18T06:34:26;8.85;;;4.13;;
76423;SDS011;65257;52.104;4.268;2022-11-18T06:36:51;9.63;;;4.30;;
76423;SDS011;65257;52.104;4.268;2022-11-18T06:39:21;8.30;;;4.07;;
76423;SDS011;65257;52.104;4.268;2022-11-18T06:42:31;7.68;;;3.20;;
76423;SDS011;65257;52.104;4.268;2022-11-18T06:45:15;10.13;;;3.78;;
76423;SDS011;65257;52.104;4.268;2022-11-18T06:47:40;7.05;;;3.78;;
76423;SDS011;65257;52.104;4.268;2022-11-18T06:50:06;7.50;;;3.85;;
76423;SDS011;65257;52.104;4.268;2022-11-18T06:52:32;8.25;;;4.07;;
76423;SDS011;65257;52.104;4.268;2022-11-18T06:55:03;10.45;;;3.92;;
76423;SDS011;65257;52.104;4.268;2022-11-18T06:57:32;9.88;;;3.53;;
76423;SDS011;65257;52.104;4.268;2022-11-18T07:00:00;8.77;;;4.40;;
76423;SDS011;65257;52.104;4.268;2022-11-18T07:02:29;7.57;;;3.58;;
76423;SDS011;65257;52.104;4.268;2022-11-18T07:04:54;11.23;;;4.20;;
76423;SDS011;65257;52.104;4.268;2022-11-18T07:07:22;7.38;;;4.00;;
76423;SDS011;65257;52.104;4.268;2022-11-18T07:09:48;10.75;;;3.85;;
76423;SDS011;65257;52.104;4.268;2022-11-18T07:12:13;11.38;;;4.03;;
76423;SDS011;65257;52.104;4.268;2022-11-18T07:14:38;8.23;;;3.78;;
76423;SDS011;65257;52.104;4.268;2022-11-18T07:17:04;8.25;;;3.85;;
76423;SDS011;65257;52.104;4.268;2022-11-18T07:19:33;8.15;;;3.90;;
76423;SDS011;65257;52.104;4.268;2022-11-18T07:21:58;8.85;;;3.55;;
76423;SDS011;65257;52.104;4.268;2022-11-18T07:24:24;8.30;;;3.63;;
76423;SDS011;65257;52.104;4.268;2022-11-18T07:26:56;8.18;;;3.53;;
76423;SDS011;65257;52.104;4.268;2022-11-18T07:29:27;8.77;;;3.80;;
76423;SDS011;65257;52.104;4.268;2022-11-18T07:31:53;9.82;;;3.58;;
76423;SDS011;65257;52.104;4.268;2022-11-18T07:34:18;9.05;;;3.25;;
76423;SDS011;65257;52.104;4.268;2022-11-18T07:36:44;10.48;;;3.67;;
76423;SDS011;65257;52.104;4.268;2022-11-18T07:39:09;10.77;;;3.03;;
76423;SDS011;65257;52.104;4.268;2022-11-18T07:41:34;9.50;;;3.58;;
76423;SDS011;65257;52.104;4.268;2022-11-18T07:44:00;12.98;;;3.88;;
76423;SDS011;65257;52.104;4.268;2022-11-18T07:46:32;7.97;;;3.38;;
76423;SDS011;65257;52.104;4.268;2022-11-18T07:49:00;6.57;;;3.40;;
76423;SDS011;65257;52.104;4.268;2022-11-18T07:51:31;8.98;;;3.80;;
76423;SDS011;65257;52.104;4.268;2022-11-18T07:53:58;11.05;;;3.40;;
76423;SDS011;65257;52.104;4.268;2022-11-18T07:56:27;10.63;;;3.90;;
76423;SDS011;65257;52.104;4.268;2022-11-18T07:58:53;10.70;;;3.35;;
76423;SDS011;65257;52.104;4.268;2022-11-18T08:01:21;10.18;;;4.18;;
76423;SDS011;65257;52.104;4.268;2022-11-18T08:03:54;8.65;;;4.00;;
76423;SDS011;65257;52.104;4.268;2022-11-18T08:06:19;8.63;;;3.60;;
76423;SDS011;65257;52.104;4.268;2022-11-18T08:08:45;9.18;;;3.58;;
76423;SDS011;65257;52.104;4.268;2022-11-18T08:11:21;10.50;;;4.05;;
76423;SDS011;65257;52.104;4.268;2022-11-18T08:13:46;9.70;;;3.45;;
76423;SDS011;65257;52.104;4.268;2022-11-18T08:16:12;9.50;;;4.47;;
76423;SDS011;65257;52.104;4.268;2022-11-18T08:18:40;10.45;;;4.50;;
76423;SDS011;65257;52.104;4.268;2022-11-18T08:21:05;10.23;;;3.90;;
76423;SDS011;65257;52.104;4.268;2022-11-18T08:23:31;14.05;;;4.18;;
76423;SDS011;65257;52.104;4.268;2022-11-18T08:26:03;8.68;;;3.58;;
76423;SDS011;65257;52.104;4.268;2022-11-18T08:28:31;9.70;;;3.95;;
76423;SDS011;65257;52.104;4.268;2022-11-18T08:31:16;12.85;;;4.35;;
76423;SDS011;65257;52.104;4.268;2022-11-18T08:33:46;12.45;;;3.67;;
76423;SDS011;65257;52.104;4.268;2022-11-18T08:36:16;8.50;;;3.88;;
76423;SDS011;65257;52.104;4.268;2022-11-18T08:38:44;8.13;;;3.92;;
76423;SDS011;65257;52.104;4.268;2022-11-18T08:41:11;9.70;;;3.63;;
76423;SDS011;65257;52.104;4.268;2022-11-18T08:43:38;16.88;;;3.75;;
76423;SDS011;65257;52.104;4.268;2022-11-18T08:46:04;8.70;;;3.22;;
76423;SDS011;65257;52.104;4.268;2022-11-18T08:48:29;11.13;;;3.33;;
76423;SDS011;65257;52.104;4.268;2022-11-18T08:50:57;13.40;;;3.78;;
76423;SDS011;65257;52.104;4.268;2022-11-18T08:53:23;11.80;;;3.53;;
76423;SDS011;65257;52.104;4.268;2022-11-18T08:55:55;6.50;;;3.53;;
76423;SDS011;65257;52.104;4.268;2022-11-18T08:58:22;7.95;;;2.92;;
76423;SDS011;65257;52.104;4.268;2022-11-18T09:00:50;10.68;;;3.63;;
76423;SDS011;65257;52.104;4.268;2022-11-18T09:03:22;9.85;;;3.58;;
76423;SDS011;65257;52.104;4.268;2022-11-18T09:05:50;7.47;;;3.40;;
76423;SDS011;65257;52.104;4.268;2022-11-18T09:08:16;10.88;;;4.20;;
76423;SDS011;65257;52.104;4.268;2022-11-18T09:10:41;9.80;;;2.90;;
76423;SDS011;65257;52.104;4.268;2022-11-18T09:13:07;8.52;;;3.25;;
76423;SDS011;65257;52.104;4.268;2022-11-18T09:15:32;8.85;;;3.63;;
76423;SDS011;65257;52.104;4.268;2022-11-18T09:17:58;8.93;;;3.72;;
76423;SDS011;65257;52.104;4.268;2022-11-18T09:20:23;10.13;;;3.65;;
76423;SDS011;65257;52.104;4.268;2022-11-18T09:22:52;9.27;;;3.22;;
76423;SDS011;65257;52.104;4.268;2022-11-18T09:25:17;6.32;;;2.63;;
76423;SDS011;65257;52.104;4.268;2022-11-18T09:27:43;7.07;;;3.25;;
76423;SDS011;65257;52.104;4.268;2022-11-18T09:30:08;10.75;;;2.78;;
76423;SDS011;65257;52.104;4.268;2022-11-18T09:32:35;4.82;;;2.40;;
76423;SDS011;65257;52.104;4.268;2022-11-18T09:35:00;9.35;;;3.45;;
76423;SDS011;65257;52.104;4.268;2022-11-18T09:37:26;8.40;;;3.33;;
76423;SDS011;65257;52.104;4.268;2022-11-18T09:39:52;7.25;;;2.88;;
76423;SDS011;65257;52.104;4.268;2022-11-18T09:47:48;9.25;;;3.70;;
76423;SDS011;65257;52.104;4.268;2022-11-18T09:50:15;9.60;;;3.75;;
76423;SDS011;65257;52.104;4.268;2022-11-18T09:53:08;7.90;;;4.07;;
76423;SDS011;65257;52.104;4.268;2022-11-18T09:55:49;5.70;;;2.67;;
76423;SDS011;65257;52.104;4.268;2022-11-18T09:58:21;11.00;;;3.53;;
76423;SDS011;65257;52.104;4.268;2022-11-18T10:00:55;7.53;;;3.80;;
76423;SDS011;65257;52.104;4.268;2022-11-18T10:11:17;8.73;;;3.40;;
76423;SDS011;65257;52.104;4.268;2022-11-18T10:16:45;8.80;;;3.10;;
76423;SDS011;65257;52.104;4.268;2022-11-18T10:24:57;10.02;;;3.72;;
76423;SDS011;65257;52.104;4.268;2022-11-18T10:27:26;11.77;;;3.97;;
76423;SDS011;65257;52.104;4.268;2022-11-18T10:30:23;10.98;;;3.78;;
76423;SDS011;65257;52.104;4.268;2022-11-18T10:33:00;10.40;;;4.53;;
76423;SDS011;65257;52.104;4.268;2022-11-18T10:35:41;11.43;;;3.88;;
76423;SDS011;65257;52.104;4.268;2022-11-18T10:40:43;8.13;;;2.92;;
76423;SDS011;65257;52.104;4.268;2022-11-18T10:51:32;8.93;;;3.90;;
76423;SDS011;65257;52.104;4.268;2022-11-18T10:54:31;5.65;;;3.28;;
76423;SDS011;65257;52.104;4.268;2022-11-18T11:01:58;10.43;;;3.42;;
76423;SDS011;65257;52.104;4.268;2022-11-18T11:04:27;11.07;;;3.90;;
76423;SDS011;65257;52.104;4.268;2022-11-18T11:06:55;9.77;;;3.50;;
76423;SDS011;65257;52.104;4.268;2022-11-18T11:09:24;10.68;;;3.25;;
76423;SDS011;65257;52.104;4.268;2022-11-18T11:12:01;7.32;;;3.55;;
76423;SDS011;65257;52.104;4.268;2022-11-18T11:18:02;11.07;;;3.88;;
76423;SDS011;65257;52.104;4.268;2022-11-18T11:20:33;12.13;;;4.47;;
76423;SDS011;65257;52.104;4.268;2022-11-18T11:23:00;12.32;;;4.50;;
76423;SDS011;65257;52.104;4.268;2022-11-18T11:25:27;13.38;;;4.00;;
76423;SDS011;65257;52.104;4.268;2022-11-18T11:31:13;11.48;;;3.83;;
76423;SDS011;65257;52.104;4.268;2022-11-18T11:36:37;11.57;;;4.72;;
76423;SDS011;65257;52.104;4.268;2022-11-18T11:50:27;13.38;;;5.50;;
76423;SDS011;65257;52.104;4.268;2022-11-18T11:53:24;14.55;;;5.18;;
76423;SDS011;65257;52.104;4.268;2022-11-18T11:56:31;12.18;;;5.82;;
76423;SDS011;65257;52.104;4.268;2022-11-18T12:01:47;12.25;;;6.07;;
76423;SDS011;65257;52.104;4.268;2022-11-18T12:04:38;12.88;;;5.82;;
76423;SDS011;65257;52.104;4.268;2022-11-18T12:07:19;9.35;;;5.38;;
76423;SDS011;65257;52.104;4.268;2022-11-18T12:09:57;14.35;;;6.82;;
76423;SDS011;65257;52.104;4.268;2022-11-18T12:12:33;12.18;;;6.35;;
76423;SDS011;65257;52.104;4.268;2022-11-18T12:15:29;12.45;;;6.32;;
76423;SDS011;65257;52.104;4.268;2022-11-18T12:18:25;11.70;;;6.93;;
76423;SDS011;65257;52.104;4.268;2022-11-18T12:21:01;13.88;;;6.53;;
76423;SDS011;65257;52.104;4.268;2022-11-18T12:23:28;12.68;;;6.43;;
76423;SDS011;65257;52.104;4.268;2022-11-18T12:28:23;10.57;;;6.07;;
76423;SDS011;65257;52.104;4.268;2022-11-18T12:36:30;9.43;;;6.13;;
76423;SDS011;65257;52.104;4.268;2022-11-18T12:38:57;13.20;;;6.53;;
76423;SDS011;65257;52.104;4.268;2022-11-18T12:44:27;15.65;;;6.85;;
76423;SDS011;65257;52.104;4.268;2022-11-18T12:46:54;11.25;;;6.40;;
76423;SDS011;65257;52.104;4.268;2022-11-18T12:52:44;12.68;;;7.25;;
76423;SDS011;65257;52.104;4.268;2022-11-18T12:54:59;12.38;;;6.22;;
76423;SDS011;65257;52.104;4.268;2022-11-18T12:57:29;13.40;;;6.95;;
76423;SDS011;65257;52.104;4.268;2022-11-18T12:59:57;17.42;;;8.07;;
76423;SDS011;65257;52.104;4.268;2022-11-18T13:02:52;11.40;;;6.15;;
76423;SDS011;65257;52.104;4.268;2022-11-18T13:05:21;13.73;;;7.38;;
76423;SDS011;65257;52.104;4.268;2022-11-18T13:08:09;13.40;;;7.30;;
76423;SDS011;65257;52.104;4.268;2022-11-18T13:13:12;13.60;;;7.30;;
76423;SDS011;65257;52.104;4.268;2022-11-18T13:15:51;15.73;;;6.88;;
76423;SDS011;65257;52.104;4.268;2022-11-18T13:18:52;10.82;;;6.03;;
76423;SDS011;65257;52.104;4.268;2022-11-18T13:21:25;12.15;;;6.70;;
76423;SDS011;65257;52.104;4.268;2022-11-18T13:24:41;16.10;;;6.68;;
76423;SDS011;65257;52.104;4.268;2022-11-18T13:27:08;9.52;;;6.15;;
76423;SDS011;65257;52.104;4.268;2022-11-18T13:30:16;14.15;;;6.55;;
76423;SDS011;65257;52.104;4.268;2022-11-18T13:32:45;11.63;;;6.70;;
76423;SDS011;65257;52.104;4.268;2022-11-18T13:37:52;15.23;;;7.00;;
76423;SDS011;65257;52.104;4.268;2022-11-18T13:40:21;12.23;;;7.03;;
76423;SDS011;65257;52.104;4.268;2022-11-18T13:42:52;19.45;;;7.43;;
76423;SDS011;65257;52.104;4.268;2022-11-18T13:45:37;13.48;;;7.38;;
76423;SDS011;65257;52.104;4.268;2022-11-18T13:48:08;13.15;;;7.13;;
76423;SDS011;65257;52.104;4.268;2022-11-18T13:50:38;12.77;;;7.18;;
76423;SDS011;65257;52.104;4.268;2022-11-18T13:55:37;15.00;;;7.78;;
76423;SDS011;65257;52.104;4.268;2022-11-18T14:00:53;13.52;;;7.32;;
76423;SDS011;65257;52.104;4.268;2022-11-18T14:03:24;11.95;;;6.00;;
76423;SDS011;65257;52.104;4.268;2022-11-18T14:05:56;8.93;;;6.13;;
76423;SDS011;65257;52.104;4.268;2022-11-18T14:08:26;13.20;;;6.75;;
76423;SDS011;65257;52.104;4.268;2022-11-18T14:10:53;12.23;;;6.15;;
76423;SDS011;65257;52.104;4.268;2022-11-18T14:15:47;8.10;;;6.28;;
76423;SDS011;65257;52.104;4.268;2022-11-18T14:21:01;9.68;;;6.13;;
76423;SDS011;65257;52.104;4.268;2022-11-18T14:23:29;11.43;;;6.00;;
76423;SDS011;65257;52.104;4.268;2022-11-18T14:25:58;11.18;;;6.53;;
76423;SDS011;65257;52.104;4.268;2022-11-18T14:33:40;11.13;;;6.10;;
76423;SDS011;65257;52.104;4.268;2022-11-18T14:36:10;10.88;;;6.60;;
76423;SDS011;65257;52.104;4.268;2022-11-18T14:38:43;8.52;;;6.22;;
76423;SDS011;65257;52.104;4.268;2022-11-18T14:41:19;11.77;;;6.85;;
76423;SDS011;65257;52.104;4.268;2022-11-18T14:44:04;11.23;;;7.32;;
76423;SDS011;65257;52.104;4.268;2022-11-18T14:46:30;9.45;;;5.75;;
76423;SDS011;65257;52.104;4.268;2022-11-18T14:49:00;9.02;;;5.63;;
76423;SDS011;65257;52.104;4.268;2022-11-18T14:51:34;9.35;;;5.68;;
76423;SDS011;65257;52.104;4.268;2022-11-18T14:54:15;7.82;;;5.55;;
76423;SDS011;65257;52.104;4.268;2022-11-18T14:56:42;12.27;;;5.82;;
76423;SDS011;65257;52.104;4.268;2022-11-18T14:59:13;7.72;;;5.47;;
76423;SDS011;65257;52.104;4.268;2022-11-18T15:01:40;7.75;;;5.28;;
76423;SDS011;65257;52.104;4.268;2022-11-18T15:04:07;10.07;;;5.30;;
76423;SDS011;65257;52.104;4.268;2022-11-18T15:06:35;9.88;;;5.40;;
76423;SDS011;65257;52.104;4.268;2022-11-18T15:09:03;8.60;;;5.38;;
76423;SDS011;65257;52.104;4.268;2022-11-18T15:13:59;9.32;;;5.15;;
76423;SDS011;65257;52.104;4.268;2022-11-18T15:16:27;8.95;;;5.00;;
76423;SDS011;65257;52.104;4.268;2022-11-18T15:18:57;7.65;;;5.32;;
76423;SDS011;65257;52.104;4.268;2022-11-18T15:21:25;8.88;;;5.57;;
76423;SDS011;65257;52.104;4.268;2022-11-18T15:23:52;7.15;;;4.93;;
76423;SDS011;65257;52.104;4.268;2022-11-18T15:26:22;7.45;;;4.50;;
76423;SDS011;65257;52.104;4.268;2022-11-18T15:28:50;13.60;;;5.25;;
76423;SDS011;65257;52.104;4.268;2022-11-18T15:31:19;10.68;;;4.85;;
76423;SDS011;65257;52.104;4.268;2022-11-18T15:33:49;8.90;;;4.72;;
76423;SDS011;65257;52.104;4.268;2022-11-18T15:36:18;7.40;;;4.60;;
76423;SDS011;65257;52.104;4.268;2022-11-18T15:38:46;10.30;;;5.47;;
76423;SDS011;65257;52.104;4.268;2022-11-18T15:41:20;10.07;;;5.47;;
76423;SDS011;65257;52.104;4.268;2022-11-18T15:44:11;8.55;;;5.13;;
76423;SDS011;65257;52.104;4.268;2022-11-18T15:46:37;11.43;;;6.45;;
76423;SDS011;65257;52.104;4.268;2022-11-18T15:49:03;9.90;;;5.93;;
76423;SDS011;65257;52.104;4.268;2022-11-18T15:51:28;9.48;;;5.32;;
76423;SDS011;65257;52.104;4.268;2022-11-18T15:53:54;12.48;;;6.38;;
76423;SDS011;65257;52.104;4.268;2022-11-18T15:56:26;9.50;;;5.57;;
76423;SDS011;65257;52.104;4.268;2022-11-18T16:01:23;9.88;;;6.25;;
76423;SDS011;65257;52.104;4.268;2022-11-18T16:03:50;14.20;;;6.13;;
76423;SDS011;65257;52.104;4.268;2022-11-18T16:06:15;11.43;;;6.18;;
76423;SDS011;65257;52.104;4.268;2022-11-18T16:08:41;11.50;;;6.55;;
76423;SDS011;65257;52.104;4.268;2022-11-18T16:11:08;9.63;;;6.18;;
76423;SDS011;65257;52.104;4.268;2022-11-18T16:13:58;13.07;;;6.85;;
76423;SDS011;65257;52.104;4.268;2022-11-18T16:16:31;13.68;;;6.93;;
76423;SDS011;65257;52.104;4.268;2022-11-18T16:18:58;12.63;;;6.93;;
76423;SDS011;65257;52.104;4.268;2022-11-18T16:21:25;17.90;;;8.48;;
76423;SDS011;65257;52.104;4.268;2022-11-18T16:23:57;13.18;;;7.25;;
76423;SDS011;65257;52.104;4.268;2022-11-18T16:26:24;12.88;;;7.25;;
76423;SDS011;65257;52.104;4.268;2022-11-18T16:28:51;13.23;;;7.90;;
76423;SDS011;65257;52.104;4.268;2022-11-18T16:31:18;12.90;;;7.82;;
76423;SDS011;65257;52.104;4.268;2022-11-18T16:34:03;15.65;;;8.15;;
76423;SDS011;65257;52.104;4.268;2022-11-18T16:36:37;14.93;;;8.75;;
76423;SDS011;65257;52.104;4.268;2022-11-18T16:39:05;16.80;;;9.00;;
76423;SDS011;65257;52.104;4.268;2022-11-18T16:41:32;14.23;;;8.90;;
76423;SDS011;65257;52.104;4.268;2022-11-18T16:43:58;14.98;;;8.43;;
76423;SDS011;65257;52.104;4.268;2022-11-18T16:46:28;14.55;;;8.98;;
76423;SDS011;65257;52.104;4.268;2022-11-18T16:48:54;15.00;;;8.65;;
76423;SDS011;65257;52.104;4.268;2022-11-18T16:51:21;16.35;;;9.02;;
76423;SDS011;65257;52.104;4.268;2022-11-18T16:53:48;16.38;;;9.07;;
76423;SDS011;65257;52.104;4.268;2022-11-18T16:56:17;16.42;;;10.10;;
76423;SDS011;65257;52.104;4.268;2022-11-18T16:58:44;16.20;;;8.70;;
76423;SDS011;65257;52.104;4.268;2022-11-18T17:01:12;16.90;;;9.20;;
76423;SDS011;65257;52.104;4.268;2022-11-18T17:03:44;19.55;;;10.30;;
76423;SDS011;65257;52.104;4.268;2022-11-18T17:06:13;15.80;;;9.38;;
76423;SDS011;65257;52.104;4.268;2022-11-18T17:08:39;17.75;;;9.85;;
76423;SDS011;65257;52.104;4.268;2022-11-18T17:11:05;20.00;;;9.95;;
76423;SDS011;65257;52.104;4.268;2022-11-18T17:13:35;14.98;;;9.05;;
76423;SDS011;65257;52.104;4.268;2022-11-18T17:16:04;16.58;;;9.95;;
76423;SDS011;65257;52.104;4.268;2022-11-18T17:18:31;17.98;;;10.02;;
76423;SDS011;65257;52.104;4.268;2022-11-18T17:21:00;16.50;;;8.95;;
76423;SDS011;65257;52.104;4.268;2022-11-18T17:23:36;15.88;;;8.85;;